sensor_id;sensor_type;location;lat;lon;timestamp;pressure;altitude;pressure_sealevel;temperature;humidity
53514;BME280;39768;54.148;12.174;2022-11-20T00:01:28;100907.38;;;5.32;100.00
53514;BME280;39768;54.148;12.174;2022-11-20T00:05:32;100902.94;;;5.28;100.00
53514;BME280;39768;54.148;12.174;2022-11-20T00:09:33;100903.72;;;5.18;100.00
53514;BME280;39768;54.148;12.174;2022-11-20T00:13:35;100906.66;;;5.47;100.00
53514;BME280;39768;54.148;12.174;2022-11-20T00:17:36;100898.78;;;5.53;100.00
53514;BME280;39768;54.148;12.174;2022-11-20T00:21:38;100909.25;;;5.46;100.00
53514;BME280;39768;54.148;12.174;2022-11-20T00:25:39;100907.53;;;5.48;100.00
53514;BME280;39768;54.148;12.174;2022-11-20T00:29:41;100904.13;;;5.59;100.00
53514;BME280;39768;54.148;12.174;2022-11-20T00:33:43;100908.31;;;5.39;100.00
53514;BME280;39768;54.148;12.174;2022-11-20T00:37:45;100913.72;;;5.54;100.00
53514;BME280;39768;54.148;12.174;2022-11-20T00:41:46;100905.66;;;5.38;100.00
53514;BME280;39768;54.148;12.174;2022-11-20T00:45:47;100905.75;;;5.47;100.00
53514;BME280;39768;54.148;12.174;2022-11-20T00:49:49;100912.75;;;5.45;100.00
53514;BME280;39768;54.148;12.174;2022-11-20T00:53:50;100908.56;;;5.66;100.00
53514;BME280;39768;54.148;12.174;2022-11-20T00:57:52;100915.44;;;5.51;100.00
53514;BME280;39768;54.148;12.174;2022-11-20T01:01:53;100910.19;;;5.54;100.00
53514;BME280;39768;54.148;12.174;2022-11-20T01:05:59;100897.88;;;5.51;100.00
53514;BME280;39768;54.148;12.174;2022-11-20T01:10:00;100899.69;;;5.57;100.00
53514;BME280;39768;54.148;12.174;2022-11-20T01:14:04;100900.50;;;5.47;100.00
53514;BME280;39768;54.148;12.174;2022-11-20T01:18:06;100894.38;;;5.52;100.00
53514;BME280;39768;54.148;12.174;2022-11-20T01:22:07;100894.50;;;5.66;100.00
53514;BME280;39768;54.148;12.174;2022-11-20T01:26:12;100889.09;;;5.49;100.00
53514;BME280;39768;54.148;12.174;2022-11-20T01:30:14;100893.66;;;5.68;100.00
53514;BME280;39768;54.148;12.174;2022-11-20T01:34:18;100890.09;;;5.65;100.00
53514;BME280;39768;54.148;12.174;2022-11-20T01:38:19;100889.84;;;5.33;100.00
53514;BME280;39768;54.148;12.174;2022-11-20T01:42:21;100891.00;;;5.62;100.00
53514;BME280;39768;54.148;12.174;2022-11-20T01:50:51;100875.19;;;5.67;100.00
53514;BME280;39768;54.148;12.174;2022-11-20T01:55:15;100879.44;;;5.50;100.00
53514;BME280;39768;54.148;12.174;2022-11-20T01:59:19;100872.44;;;5.49;100.00
53514;BME280;39768;54.148;12.174;2022-11-20T02:03:23;100875.94;;;5.51;100.00
53514;BME280;39768;54.148;12.174;2022-11-20T02:07:25;100867.41;;;5.82;100.00
53514;BME280;39768;54.148;12.174;2022-11-20T02:11:27;100867.22;;;5.56;100.00
53514;BME280;39768;54.148;12.174;2022-11-20T02:15:32;100866.94;;;5.26;100.00
53514;BME280;39768;54.148;12.174;2022-11-20T02:19:34;100867.84;;;5.29;100.00
53514;BME280;39768;54.148;12.174;2022-11-20T02:24:02;100858.53;;;5.68;100.00
53514;BME280;39768;54.148;12.174;2022-11-20T02:28:05;100854.72;;;5.32;100.00
53514;BME280;39768;54.148;12.174;2022-11-20T02:32:20;100847.06;;;5.58;100.00
53514;BME280;39768;54.148;12.174;2022-11-20T02:36:24;100849.66;;;5.57;100.00
53514;BME280;39768;54.148;12.174;2022-11-20T02:40:28;100847.97;;;5.66;100.00
53514;BME280;39768;54.148;12.174;2022-11-20T02:44:29;100840.00;;;5.54;100.00
53514;BME280;39768;54.148;12.174;2022-11-20T02:48:31;100835.56;;;5.49;100.00
53514;BME280;39768;54.148;12.174;2022-11-20T02:52:34;100840.00;;;5.56;100.00
53514;BME280;39768;54.148;12.174;2022-11-20T02:56:38;100839.25;;;5.72;100.00
53514;BME280;39768;54.148;12.174;2022-11-20T03:00:39;100840.22;;;5.85;100.00
53514;BME280;39768;54.148;12.174;2022-11-20T03:04:41;100838.31;;;5.64;100.00
53514;BME280;39768;54.148;12.174;2022-11-20T03:08:42;100834.03;;;5.81;100.00
53514;BME280;39768;54.148;12.174;2022-11-20T03:12:44;100828.88;;;5.89;100.00
53514;BME280;39768;54.148;12.174;2022-11-20T03:16:45;100830.53;;;5.82;100.00
53514;BME280;39768;54.148;12.174;2022-11-20T03:20:46;100825.41;;;5.93;100.00
53514;BME280;39768;54.148;12.174;2022-11-20T03:24:48;100830.66;;;5.96;100.00
53514;BME280;39768;54.148;12.174;2022-11-20T03:28:55;100821.03;;;6.01;100.00
53514;BME280;39768;54.148;12.174;2022-11-20T03:32:56;100825.31;;;5.85;98.23
53514;BME280;39768;54.148;12.174;2022-11-20T03:36:58;100818.28;;;5.86;99.40
53514;BME280;39768;54.148;12.174;2022-11-20T03:41:01;100812.25;;;5.99;99.48
53514;BME280;39768;54.148;12.174;2022-11-20T03:45:04;100809.47;;;5.78;100.00
53514;BME280;39768;54.148;12.174;2022-11-20T03:49:06;100809.59;;;5.91;100.00
53514;BME280;39768;54.148;12.174;2022-11-20T03:53:07;100812.75;;;5.48;100.00
53514;BME280;39768;54.148;12.174;2022-11-20T03:57:09;100802.28;;;5.57;100.00
53514;BME280;39768;54.148;12.174;2022-11-20T04:01:13;100805.88;;;5.71;100.00
53514;BME280;39768;54.148;12.174;2022-11-20T04:05:15;100805.09;;;5.83;100.00
53514;BME280;39768;54.148;12.174;2022-11-20T04:09:16;100804.25;;;5.87;100.00
53514;BME280;39768;54.148;12.174;2022-11-20T04:13:18;100800.53;;;5.59;100.00
53514;BME280;39768;54.148;12.174;2022-11-20T04:17:19;100808.34;;;5.45;100.00
53514;BME280;39768;54.148;12.174;2022-11-20T04:21:22;100797.91;;;5.60;100.00
53514;BME280;39768;54.148;12.174;2022-11-20T04:25:23;100800.56;;;5.62;100.00
53514;BME280;39768;54.148;12.174;2022-11-20T04:29:25;100806.59;;;5.50;100.00
53514;BME280;39768;54.148;12.174;2022-11-20T04:33:26;100808.13;;;5.19;100.00
53514;BME280;39768;54.148;12.174;2022-11-20T04:37:33;100804.84;;;5.48;100.00
53514;BME280;39768;54.148;12.174;2022-11-20T04:41:35;100807.59;;;5.66;100.00
53514;BME280;39768;54.148;12.174;2022-11-20T04:45:37;100789.19;;;5.67;100.00
53514;BME280;39768;54.148;12.174;2022-11-20T04:49:38;100790.00;;;5.59;100.00
53514;BME280;39768;54.148;12.174;2022-11-20T04:53:40;100787.47;;;5.74;98.66
53514;BME280;39768;54.148;12.174;2022-11-20T04:57:41;100787.50;;;5.80;97.73
53514;BME280;39768;54.148;12.174;2022-11-20T05:01:43;100785.72;;;5.79;96.85
53514;BME280;39768;54.148;12.174;2022-11-20T05:05:44;100784.78;;;5.63;98.40
53514;BME280;39768;54.148;12.174;2022-11-20T05:09:46;100779.41;;;5.48;98.06
53514;BME280;39768;54.148;12.174;2022-11-20T05:13:48;100775.94;;;5.57;96.30
53514;BME280;39768;54.148;12.174;2022-11-20T05:17:51;100770.81;;;5.81;94.85
53514;BME280;39768;54.148;12.174;2022-11-20T05:21:53;100772.38;;;5.52;96.57
53514;BME280;39768;54.148;12.174;2022-11-20T05:25:55;100774.34;;;5.77;97.43
53514;BME280;39768;54.148;12.174;2022-11-20T05:29:59;100762.91;;;5.81;97.59
53514;BME280;39768;54.148;12.174;2022-11-20T05:34:01;100759.44;;;5.84;96.51
53514;BME280;39768;54.148;12.174;2022-11-20T05:38:02;100762.94;;;5.84;97.08
53514;BME280;39768;54.148;12.174;2022-11-20T05:42:04;100760.22;;;5.69;98.97
53514;BME280;39768;54.148;12.174;2022-11-20T05:46:24;100753.97;;;5.53;99.06
53514;BME280;39768;54.148;12.174;2022-11-20T05:50:29;100748.69;;;5.50;100.00
53514;BME280;39768;54.148;12.174;2022-11-20T05:54:31;100745.81;;;5.21;100.00
53514;BME280;39768;54.148;12.174;2022-11-20T05:58:33;100751.75;;;4.96;100.00
53514;BME280;39768;54.148;12.174;2022-11-20T06:02:35;100750.69;;;4.76;100.00
53514;BME280;39768;54.148;12.174;2022-11-20T06:06:37;100746.00;;;4.44;100.00
53514;BME280;39768;54.148;12.174;2022-11-20T06:10:38;100749.03;;;4.84;100.00
53514;BME280;39768;54.148;12.174;2022-11-20T06:14:40;100749.94;;;4.87;100.00
53514;BME280;39768;54.148;12.174;2022-11-20T06:18:41;100748.69;;;4.52;100.00
53514;BME280;39768;54.148;12.174;2022-11-20T06:22:43;100743.69;;;4.78;100.00
53514;BME280;39768;54.148;12.174;2022-11-20T06:26:44;100750.69;;;4.73;100.00
53514;BME280;39768;54.148;12.174;2022-11-20T06:30:46;100747.06;;;4.65;100.00
53514;BME280;39768;54.148;12.174;2022-11-20T06:34:47;100744.41;;;4.61;100.00
53514;BME280;39768;54.148;12.174;2022-11-20T06:38:49;100751.31;;;4.50;100.00
53514;BME280;39768;54.148;12.174;2022-11-20T06:42:50;100746.78;;;4.37;100.00
53514;BME280;39768;54.148;12.174;2022-11-20T06:46:54;100743.50;;;4.56;100.00
53514;BME280;39768;54.148;12.174;2022-11-20T06:50:56;100744.50;;;4.69;100.00
53514;BME280;39768;54.148;12.174;2022-11-20T06:54:58;100743.41;;;4.50;100.00
53514;BME280;39768;54.148;12.174;2022-11-20T06:59:04;100745.06;;;4.39;100.00
53514;BME280;39768;54.148;12.174;2022-11-20T07:03:07;100743.47;;;4.55;100.00
53514;BME280;39768;54.148;12.174;2022-11-20T07:07:09;100746.94;;;4.52;100.00
53514;BME280;39768;54.148;12.174;2022-11-20T07:11:11;100749.69;;;4.65;100.00
53514;BME280;39768;54.148;12.174;2022-11-20T07:15:13;100746.00;;;4.47;100.00
53514;BME280;39768;54.148;12.174;2022-11-20T07:19:14;100737.38;;;4.59;100.00
53514;BME280;39768;54.148;12.174;2022-11-20T07:23:16;100741.44;;;4.28;100.00
53514;BME280;39768;54.148;12.174;2022-11-20T07:27:17;100736.19;;;4.31;100.00
53514;BME280;39768;54.148;12.174;2022-11-20T07:31:19;100725.56;;;4.22;100.00
53514;BME280;39768;54.148;12.174;2022-11-20T07:35:21;100727.13;;;4.06;100.00
53514;BME280;39768;54.148;12.174;2022-11-20T07:39:23;100729.75;;;4.05;100.00
53514;BME280;39768;54.148;12.174;2022-11-20T07:43:24;100728.41;;;4.39;100.00
53514;BME280;39768;54.148;12.174;2022-11-20T07:47:26;100723.16;;;4.39;100.00
53514;BME280;39768;54.148;12.174;2022-11-20T07:51:28;100717.94;;;4.42;100.00
53514;BME280;39768;54.148;12.174;2022-11-20T07:55:31;100721.47;;;4.44;100.00
53514;BME280;39768;54.148;12.174;2022-11-20T07:59:32;100724.91;;;4.40;100.00
53514;BME280;39768;54.148;12.174;2022-11-20T08:03:34;100732.78;;;4.40;100.00
53514;BME280;39768;54.148;12.174;2022-11-20T08:07:40;100729.31;;;4.45;100.00
53514;BME280;39768;54.148;12.174;2022-11-20T08:11:42;100726.84;;;4.56;100.00
53514;BME280;39768;54.148;12.174;2022-11-20T08:16:02;100724.97;;;4.46;100.00
53514;BME280;39768;54.148;12.174;2022-11-20T08:20:04;100738.47;;;4.82;100.00
53514;BME280;39768;54.148;12.174;2022-11-20T08:24:06;100729.53;;;4.64;100.00
53514;BME280;39768;54.148;12.174;2022-11-20T08:28:09;100734.94;;;4.80;100.00
53514;BME280;39768;54.148;12.174;2022-11-20T08:32:21;100737.94;;;5.18;100.00
53514;BME280;39768;54.148;12.174;2022-11-20T08:36:23;100737.06;;;5.19;100.00
53514;BME280;39768;54.148;12.174;2022-11-20T08:40:25;100733.53;;;5.16;100.00
53514;BME280;39768;54.148;12.174;2022-11-20T08:44:27;100740.25;;;4.05;100.00
53514;BME280;39768;54.148;12.174;2022-11-20T08:48:28;100742.84;;;3.38;100.00
53514;BME280;39768;54.148;12.174;2022-11-20T08:52:29;100749.81;;;3.38;100.00
53514;BME280;39768;54.148;12.174;2022-11-20T08:56:35;100746.94;;;4.52;100.00
53514;BME280;39768;54.148;12.174;2022-11-20T09:00:36;100746.56;;;5.05;100.00
53514;BME280;39768;54.148;12.174;2022-11-20T09:04:38;100749.38;;;5.23;100.00
53514;BME280;39768;54.148;12.174;2022-11-20T09:08:39;100744.03;;;5.13;100.00
53514;BME280;39768;54.148;12.174;2022-11-20T09:12:41;100735.28;;;5.15;100.00
53514;BME280;39768;54.148;12.174;2022-11-20T09:16:44;100732.28;;;4.73;100.00
53514;BME280;39768;54.148;12.174;2022-11-20T09:20:46;100730.84;;;4.23;100.00
53514;BME280;39768;54.148;12.174;2022-11-20T09:24:48;100732.56;;;4.20;100.00
53514;BME280;39768;54.148;12.174;2022-11-20T09:28:50;100734.31;;;5.04;100.00
53514;BME280;39768;54.148;12.174;2022-11-20T09:32:58;100723.16;;;4.40;100.00
53514;BME280;39768;54.148;12.174;2022-11-20T09:36:59;100729.03;;;5.01;100.00
53514;BME280;39768;54.148;12.174;2022-11-20T09:41:23;100730.78;;;5.01;100.00
53514;BME280;39768;54.148;12.174;2022-11-20T09:45:54;100726.88;;;5.73;100.00
53514;BME280;39768;54.148;12.174;2022-11-20T09:50:25;100720.88;;;5.89;100.00
53514;BME280;39768;54.148;12.174;2022-11-20T09:54:33;100731.84;;;5.25;100.00
53514;BME280;39768;54.148;12.174;2022-11-20T09:58:49;100730.28;;;5.53;100.00
53514;BME280;39768;54.148;12.174;2022-11-20T10:03:13;100722.56;;;5.84;100.00
53514;BME280;39768;54.148;12.174;2022-11-20T10:07:21;100713.91;;;6.01;100.00
53514;BME280;39768;54.148;12.174;2022-11-20T10:12:00;100718.00;;;5.54;100.00
53514;BME280;39768;54.148;12.174;2022-11-20T10:29:18;100714.47;;;5.52;100.00
53514;BME280;39768;54.148;12.174;2022-11-20T10:33:24;100710.75;;;5.21;100.00
53514;BME280;39768;54.148;12.174;2022-11-20T10:37:34;100708.28;;;5.42;100.00
53514;BME280;39768;54.148;12.174;2022-11-20T10:41:41;100704.78;;;5.43;100.00
53514;BME280;39768;54.148;12.174;2022-11-20T10:46:05;100704.63;;;5.19;100.00
53514;BME280;39768;54.148;12.174;2022-11-20T10:50:13;100703.19;;;5.74;100.00
53514;BME280;39768;54.148;12.174;2022-11-20T10:54:43;100697.25;;;6.24;100.00
53514;BME280;39768;54.148;12.174;2022-11-20T10:59:19;100698.81;;;5.79;100.00
53514;BME280;39768;54.148;12.174;2022-11-20T11:03:29;100713.50;;;5.39;100.00
53514;BME280;39768;54.148;12.174;2022-11-20T11:07:37;100705.19;;;6.27;100.00
53514;BME280;39768;54.148;12.174;2022-11-20T11:11:39;100711.72;;;5.32;100.00
53514;BME280;39768;54.148;12.174;2022-11-20T11:15:41;100704.09;;;5.79;100.00
53514;BME280;39768;54.148;12.174;2022-11-20T11:19:42;100704.78;;;5.49;100.00
53514;BME280;39768;54.148;12.174;2022-11-20T11:23:43;100704.22;;;5.93;100.00
53514;BME280;39768;54.148;12.174;2022-11-20T11:27:46;100705.19;;;6.25;100.00
53514;BME280;39768;54.148;12.174;2022-11-20T11:31:49;100708.28;;;5.42;100.00
53514;BME280;39768;54.148;12.174;2022-11-20T11:35:55;100698.81;;;5.75;100.00
53514;BME280;39768;54.148;12.174;2022-11-20T11:39:58;100711.84;;;5.53;100.00
53514;BME280;39768;54.148;12.174;2022-11-20T11:44:22;100706.13;;;4.89;100.00
53514;BME280;39768;54.148;12.174;2022-11-20T11:48:54;100702.41;;;4.68;100.00
53514;BME280;39768;54.148;12.174;2022-11-20T11:53:14;100704.97;;;4.58;100.00
53514;BME280;39768;54.148;12.174;2022-11-20T12:01:26;100708.88;;;4.18;100.00
53514;BME280;39768;54.148;12.174;2022-11-20T12:05:39;100694.06;;;4.22;100.00
53514;BME280;39768;54.148;12.174;2022-11-20T12:09:47;100693.06;;;4.11;100.00
53514;BME280;39768;54.148;12.174;2022-11-20T12:14:01;100689.50;;;4.07;100.00
53514;BME280;39768;54.148;12.174;2022-11-20T12:18:15;100692.19;;;4.12;100.00
53514;BME280;39768;54.148;12.174;2022-11-20T12:26:43;100687.47;;;4.65;100.00
53514;BME280;39768;54.148;12.174;2022-11-20T12:31:10;100684.22;;;4.92;100.00
53514;BME280;39768;54.148;12.174;2022-11-20T12:39:49;100678.16;;;5.05;100.00
53514;BME280;39768;54.148;12.174;2022-11-20T12:44:29;100678.09;;;4.94;100.00
53514;BME280;39768;54.148;12.174;2022-11-20T12:49:04;100680.38;;;4.53;100.00
53514;BME280;39768;54.148;12.174;2022-11-20T12:53:27;100680.50;;;4.69;100.00
53514;BME280;39768;54.148;12.174;2022-11-20T12:57:49;100682.94;;;4.49;100.00
53514;BME280;39768;54.148;12.174;2022-11-20T13:01:56;100677.16;;;3.99;100.00
53514;BME280;39768;54.148;12.174;2022-11-20T13:06:12;100676.75;;;4.45;100.00
53514;BME280;39768;54.148;12.174;2022-11-20T13:11:06;100668.13;;;4.55;100.00
53514;BME280;39768;54.148;12.174;2022-11-20T13:18:48;100678.38;;;4.28;100.00
53514;BME280;39768;54.148;12.174;2022-11-20T13:22:52;100670.97;;;3.95;100.00
53514;BME280;39768;54.148;12.174;2022-11-20T13:27:17;100673.94;;;3.53;100.00
53514;BME280;39768;54.148;12.174;2022-11-20T13:31:29;100664.81;;;3.92;100.00
53514;BME280;39768;54.148;12.174;2022-11-20T13:35:37;100662.34;;;4.07;100.00
53514;BME280;39768;54.148;12.174;2022-11-20T13:39:39;100655.56;;;4.25;100.00
53514;BME280;39768;54.148;12.174;2022-11-20T13:43:41;100647.72;;;4.32;100.00
53514;BME280;39768;54.148;12.174;2022-11-20T13:47:48;100648.69;;;4.38;100.00
53514;BME280;39768;54.148;12.174;2022-11-20T13:51:53;100652.06;;;4.25;100.00
53514;BME280;39768;54.148;12.174;2022-11-20T13:56:04;100651.16;;;4.24;100.00
53514;BME280;39768;54.148;12.174;2022-11-20T14:04:21;100659.25;;;4.43;100.00
53514;BME280;39768;54.148;12.174;2022-11-20T14:08:36;100650.38;;;4.30;100.00
53514;BME280;39768;54.148;12.174;2022-11-20T14:12:39;100644.25;;;4.36;100.00
53514;BME280;39768;54.148;12.174;2022-11-20T14:16:40;100646.97;;;4.42;100.00
53514;BME280;39768;54.148;12.174;2022-11-20T14:20:44;100643.31;;;4.31;100.00
53514;BME280;39768;54.148;12.174;2022-11-20T14:24:46;100633.59;;;4.19;100.00
53514;BME280;39768;54.148;12.174;2022-11-20T14:28:49;100637.06;;;4.13;100.00
53514;BME280;39768;54.148;12.174;2022-11-20T14:33:00;100621.97;;;3.96;100.00
53514;BME280;39768;54.148;12.174;2022-11-20T14:37:04;100624.25;;;3.67;100.00
53514;BME280;39768;54.148;12.174;2022-11-20T14:41:17;100610.19;;;3.63;100.00
53514;BME280;39768;54.148;12.174;2022-11-20T14:45:20;100599.50;;;3.48;100.00
53514;BME280;39768;54.148;12.174;2022-11-20T14:49:22;100603.84;;;3.46;100.00
53514;BME280;39768;54.148;12.174;2022-11-20T14:53:24;100600.44;;;3.51;100.00
53514;BME280;39768;54.148;12.174;2022-11-20T14:57:31;100611.88;;;3.55;100.00
53514;BME280;39768;54.148;12.174;2022-11-20T15:01:34;100614.25;;;3.37;100.00
53514;BME280;39768;54.148;12.174;2022-11-20T15:05:47;100610.66;;;3.32;100.00
53514;BME280;39768;54.148;12.174;2022-11-20T15:09:59;100616.63;;;3.18;100.00
53514;BME280;39768;54.148;12.174;2022-11-20T15:14:04;100615.34;;;2.92;100.00
53514;BME280;39768;54.148;12.174;2022-11-20T15:18:14;100616.38;;;2.46;100.00
53514;BME280;39768;54.148;12.174;2022-11-20T15:22:16;100608.06;;;2.73;100.00
53514;BME280;39768;54.148;12.174;2022-11-20T15:26:23;100608.00;;;2.17;100.00
53514;BME280;39768;54.148;12.174;2022-11-20T15:30:25;100607.09;;;2.15;100.00
53514;BME280;39768;54.148;12.174;2022-11-20T15:34:27;100596.59;;;2.65;100.00
53514;BME280;39768;54.148;12.174;2022-11-20T15:38:28;100589.59;;;2.64;100.00
53514;BME280;39768;54.148;12.174;2022-11-20T15:42:30;100588.50;;;2.50;100.00
53514;BME280;39768;54.148;12.174;2022-11-20T15:46:34;100589.66;;;2.70;100.00
53514;BME280;39768;54.148;12.174;2022-11-20T15:51:02;100593.91;;;2.62;100.00
53514;BME280;39768;54.148;12.174;2022-11-20T15:55:10;100587.84;;;2.64;100.00
53514;BME280;39768;54.148;12.174;2022-11-20T15:59:11;100578.00;;;2.50;100.00
53514;BME280;39768;54.148;12.174;2022-11-20T16:03:16;100575.06;;;2.87;100.00
53514;BME280;39768;54.148;12.174;2022-11-20T16:07:17;100575.59;;;2.63;100.00
53514;BME280;39768;54.148;12.174;2022-11-20T16:11:19;100579.53;;;2.93;100.00
53514;BME280;39768;54.148;12.174;2022-11-20T16:15:20;100595.22;;;2.35;100.00
53514;BME280;39768;54.148;12.174;2022-11-20T16:19:40;100591.34;;;2.65;100.00
53514;BME280;39768;54.148;12.174;2022-11-20T16:23:42;100592.69;;;2.97;100.00
53514;BME280;39768;54.148;12.174;2022-11-20T16:27:43;100583.78;;;3.48;100.00
53514;BME280;39768;54.148;12.174;2022-11-20T16:31:45;100583.88;;;3.56;100.00
53514;BME280;39768;54.148;12.174;2022-11-20T16:35:46;100579.31;;;3.41;100.00
53514;BME280;39768;54.148;12.174;2022-11-20T16:39:48;100589.00;;;3.46;100.00
53514;BME280;39768;54.148;12.174;2022-11-20T16:43:51;100587.25;;;3.47;100.00
53514;BME280;39768;54.148;12.174;2022-11-20T16:47:53;100586.97;;;3.24;100.00
53514;BME280;39768;54.148;12.174;2022-11-20T16:51:55;100581.06;;;3.40;100.00
53514;BME280;39768;54.148;12.174;2022-11-20T16:55:56;100569.78;;;3.47;100.00
53514;BME280;39768;54.148;12.174;2022-11-20T16:59:58;100565.69;;;3.71;100.00
53514;BME280;39768;54.148;12.174;2022-11-20T17:04:05;100576.88;;;3.58;100.00
53514;BME280;39768;54.148;12.174;2022-11-20T17:08:07;100575.38;;;3.78;100.00
53514;BME280;39768;54.148;12.174;2022-11-20T17:12:08;100569.97;;;3.64;100.00
53514;BME280;39768;54.148;12.174;2022-11-20T17:16:18;100560.91;;;3.36;100.00
53514;BME280;39768;54.148;12.174;2022-11-20T17:20:20;100555.09;;;3.63;100.00
53514;BME280;39768;54.148;12.174;2022-11-20T17:24:22;100547.19;;;3.62;100.00
53514;BME280;39768;54.148;12.174;2022-11-20T17:28:29;100540.13;;;3.54;100.00
53514;BME280;39768;54.148;12.174;2022-11-20T17:32:32;100544.63;;;3.66;100.00
53514;BME280;39768;54.148;12.174;2022-11-20T17:36:33;100539.28;;;3.60;100.00
53514;BME280;39768;54.148;12.174;2022-11-20T17:40:35;100541.00;;;3.55;100.00
53514;BME280;39768;54.148;12.174;2022-11-20T17:44:36;100540.16;;;3.56;100.00
53514;BME280;39768;54.148;12.174;2022-11-20T17:48:38;100529.53;;;3.48;100.00
53514;BME280;39768;54.148;12.174;2022-11-20T17:52:44;100533.72;;;3.33;100.00
53514;BME280;39768;54.148;12.174;2022-11-20T17:56:45;100527.66;;;3.35;100.00
53514;BME280;39768;54.148;12.174;2022-11-20T18:01:06;100517.66;;;2.43;100.00
53514;BME280;39768;54.148;12.174;2022-11-20T18:05:08;100518.59;;;3.09;100.00
53514;BME280;39768;54.148;12.174;2022-11-20T18:09:10;100527.47;;;3.20;100.00
53514;BME280;39768;54.148;12.174;2022-11-20T18:13:12;100524.03;;;3.26;100.00
53514;BME280;39768;54.148;12.174;2022-11-20T18:17:14;100516.22;;;3.32;100.00
53514;BME280;39768;54.148;12.174;2022-11-20T18:21:16;100516.22;;;3.32;100.00
53514;BME280;39768;54.148;12.174;2022-11-20T18:25:17;100507.53;;;3.36;100.00
53514;BME280;39768;54.148;12.174;2022-11-20T18:29:18;100512.84;;;3.42;100.00
53514;BME280;39768;54.148;12.174;2022-11-20T18:33:20;100512.25;;;3.66;100.00
53514;BME280;39768;54.148;12.174;2022-11-20T18:37:30;100513.84;;;3.51;100.00
53514;BME280;39768;54.148;12.174;2022-11-20T18:41:32;100515.03;;;3.82;100.00
53514;BME280;39768;54.148;12.174;2022-11-20T18:46:00;100516.78;;;3.82;100.00
53514;BME280;39768;54.148;12.174;2022-11-20T18:50:04;100515.66;;;3.59;100.00
53514;BME280;39768;54.148;12.174;2022-11-20T18:54:06;100518.22;;;3.52;100.00
53514;BME280;39768;54.148;12.174;2022-11-20T18:58:08;100520.34;;;3.88;100.00
53514;BME280;39768;54.148;12.174;2022-11-20T19:02:14;100518.91;;;3.36;100.00
53514;BME280;39768;54.148;12.174;2022-11-20T19:06:16;100522.38;;;2.69;100.00
53514;BME280;39768;54.148;12.174;2022-11-20T19:10:18;100519.88;;;2.76;100.00
53514;BME280;39768;54.148;12.174;2022-11-20T19:14:20;100521.81;;;3.62;100.00
53514;BME280;39768;54.148;12.174;2022-11-20T19:18:22;100518.06;;;3.37;100.00
53514;BME280;39768;54.148;12.174;2022-11-20T19:22:23;100514.28;;;3.15;100.00
53514;BME280;39768;54.148;12.174;2022-11-20T19:26:25;100506.56;;;3.29;100.00
53514;BME280;39768;54.148;12.174;2022-11-20T19:30:27;100509.59;;;3.64;100.00
53514;BME280;39768;54.148;12.174;2022-11-20T19:34:28;100506.19;;;3.73;100.00
53514;BME280;39768;54.148;12.174;2022-11-20T19:38:30;100504.81;;;4.11;100.00
53514;BME280;39768;54.148;12.174;2022-11-20T19:42:31;100496.06;;;4.12;100.00
53514;BME280;39768;54.148;12.174;2022-11-20T19:46:35;100505.69;;;4.12;100.00
53514;BME280;39768;54.148;12.174;2022-11-20T19:50:37;100507.41;;;4.10;100.00
53514;BME280;39768;54.148;12.174;2022-11-20T19:54:38;100510.06;;;4.16;100.00
53514;BME280;39768;54.148;12.174;2022-11-20T19:58:40;100510.06;;;4.16;100.00
53514;BME280;39768;54.148;12.174;2022-11-20T20:02:42;100502.50;;;3.52;100.00
53514;BME280;39768;54.148;12.174;2022-11-20T20:06:43;100498.97;;;2.82;100.00
53514;BME280;39768;54.148;12.174;2022-11-20T20:10:45;100503.59;;;3.00;100.00
53514;BME280;39768;54.148;12.174;2022-11-20T20:14:46;100495.28;;;3.35;100.00
53514;BME280;39768;54.148;12.174;2022-11-20T20:18:53;100490.72;;;3.18;100.00
53514;BME280;39768;54.148;12.174;2022-11-20T20:22:55;100488.97;;;3.17;100.00
53514;BME280;39768;54.148;12.174;2022-11-20T20:26:57;100500.72;;;3.50;100.00
53514;BME280;39768;54.148;12.174;2022-11-20T20:31:12;100500.22;;;3.89;100.00
53514;BME280;39768;54.148;12.174;2022-11-20T20:35:13;100508.66;;;3.59;100.00
53514;BME280;39768;54.148;12.174;2022-11-20T20:39:15;100497.81;;;3.27;100.00
53514;BME280;39768;54.148;12.174;2022-11-20T20:43:16;100492.63;;;3.32;100.00
53514;BME280;39768;54.148;12.174;2022-11-20T20:47:18;100494.84;;;3.75;100.00
53514;BME280;39768;54.148;12.174;2022-11-20T20:51:20;100494.97;;;3.90;100.00
53514;BME280;39768;54.148;12.174;2022-11-20T20:55:22;100489.53;;;3.68;100.00
53514;BME280;39768;54.148;12.174;2022-11-20T20:59:23;100486.06;;;3.73;100.00
53514;BME280;39768;54.148;12.174;2022-11-20T21:03:25;100487.06;;;3.84;100.00
53514;BME280;39768;54.148;12.174;2022-11-20T21:07:33;100479.72;;;3.50;100.00
53514;BME280;39768;54.148;12.174;2022-11-20T21:11:34;100487.59;;;3.51;100.00
53514;BME280;39768;54.148;12.174;2022-11-20T21:15:38;100472.25;;;3.09;100.00
53514;BME280;39768;54.148;12.174;2022-11-20T21:19:39;100471.22;;;2.98;100.00
53514;BME280;39768;54.148;12.174;2022-11-20T21:23:44;100463.16;;;2.83;100.00
53514;BME280;39768;54.148;12.174;2022-11-20T21:27:46;100465.97;;;3.75;100.00
53514;BME280;39768;54.148;12.174;2022-11-20T21:31:48;100453.69;;;3.74;100.00
53514;BME280;39768;54.148;12.174;2022-11-20T21:35:50;100450.94;;;3.59;100.00
53514;BME280;39768;54.148;12.174;2022-11-20T21:39:51;100451.16;;;3.82;100.00
53514;BME280;39768;54.148;12.174;2022-11-20T21:43:53;100438.06;;;3.89;100.00